• Join FlightAware (Why Join?)
  • Login
  • US Flag 
04:25AM EDT


 

Airport Tracker/Info


-or-


 

Live Flight TrackerFlight Track Log ✈ SKW5550 ✈ 24-Aug-2013 ✈ KCOD - KDEN

Flight Track Log - Related Links

Times and Time Zones

All times are in EDT time to prevent confusion due to time zone crossing. See the SKW5550 flight status page for this flight to view local times or setup timezone preferences in your user account.

Time Position Orientation Groundspeed Altitude Reporting Facility
EDT Latitude Longitude Course Direction KTS MPH feet Rate Location/Type
08:09AM 44.5417 -108.9886 144° Southeast 199 229 6,100  Level Salt Lake Center
08:10AM 44.5953 -108.9603 21° North 214 246 8,100 1,920 Climbing Salt Lake Center
08:11AM 44.3391 -108.8389 144° Southeast  Level Estimated
08:11AM 44.6586 -108.9153 27° Northeast 252 290 10,000  Level Salt Lake Center
08:12AM 44.2485 -108.7469 144° Southeast  Level Estimated
08:12AM 44.6128 -108.8317 128° Southeast 290 334 11,700  Level Salt Lake Center
08:13AM 44.1578 -108.6552 144° Southeast  Level Estimated
08:13AM 44.5261 -108.8097 170° South 308 354 13,500  Level Salt Lake Center
08:14AM 44.0670 -108.5637 144° Southeast  Level Estimated
08:14AM 44.4314 -108.7878 171° South 331 381 15,000  Level Salt Lake Center
08:15AM 43.9761 -108.4725 144° Southeast  Level Estimated
08:15AM 44.3350 -108.7675 171° South 346 398 16,500  Level Salt Lake Center
08:16AM 44.2375 -108.7406 169° South 355 409 18,000 1,200 Climbing Salt Lake Center
08:17AM 44.1439 -108.6914 159° South 359 413 19,000 960 Climbing Salt Lake Center
08:18AM 44.0531 -108.6383 157° South 357 411 20,000 960 Climbing Salt Lake Center
08:19AM 43.9647 -108.5872 157° South 350 403 21,000 900 Climbing Salt Lake Center
08:20AM 43.8753 -108.5364 158° South 349 402 21,900 840 Climbing Salt Lake Center
08:21AM 43.7831 -108.4828 157° South 358 412 22,700 780 Climbing Salt Lake Center
08:22AM 43.6872 -108.4286 158° South 370 426 23,500 780 Climbing Salt Lake Center
08:23AM 43.5903 -108.3739 158° South 376 433 24,300 780 Climbing Salt Lake Center
08:24AM 43.4919 -108.3175 157° South 383 441 25,100 780 Climbing Salt Lake Center
08:25AM 43.4008 -108.2378 148° Southeast 390 449 25,900 780 Climbing Salt Lake Center
08:26AM 43.3142 -108.1422 141° Southeast 399 459 26,700 780 Climbing Salt Lake Center
08:27AM 43.2275 -108.0506 142° Southeast 395 455 27,500 780 Climbing Salt Lake Center
08:28AM 43.1389 -107.9581 143° Southeast 400 460 28,300 720 Climbing Salt Lake Center
08:29AM 43.0519 -107.8653 142° Southeast 398 458 29,000 660 Climbing Salt Lake Center
08:30AM 42.9464 -107.7547 143° Southeast 401 461 29,700 660 Climbing Salt Lake Center
08:31AM 42.8567 -107.6606 142° Southeast 405 466 30,400 540 Climbing Salt Lake Center
08:32AM 42.7717 -107.5725 143° Southeast 403 464 30,900 240 Climbing Salt Lake Center
08:33AM 42.6833 -107.4817 143° Southeast 412 474 31,000  Climbing Salt Lake Center
08:34AM 42.5933 -107.3883 143° Southeast 421 484 31,000  Level Salt Lake Center
08:35AM 42.4856 -107.2753 142° Southeast 435 501 31,000  Level Salt Lake Center
08:36AM 42.3936 -107.1761 141° Southeast 440 506 31,000  Level Salt Lake Center
08:37AM 42.3003 -107.0781 142° Southeast 443 510 31,000  Level Salt Lake Center
08:38AM 42.1936 -106.9658 142° Southeast 436 502 31,000  Level Salt Lake Center
08:39AM 42.1011 -106.8700 142° Southeast 435 501 31,000  Level Salt Lake Center
08:40AM 42.0092 -106.7739 142° Southeast 437 503 31,000  Level Salt Lake Center
08:41AM 41.9175 -106.6783 142° Southeast 436 502 31,000  Level Salt Lake Center
08:42AM 41.8169 -106.5750 143° Southeast 441 507 31,000  Level Salt Lake Center
08:43AM 41.7131 -106.4661 142° Southeast 432 497 31,000  Level Salt Lake Center
08:44AM 41.6194 -106.3711 143° Southeast 436 502 31,000  Level Salt Lake Center
08:46AM 41.4975 -106.2450 142° Southeast 430 495 31,000  Level Denver Center
08:47AM 41.4050 -106.1517 143° Southeast 435 501 31,000  Level Denver Center
08:48AM 41.3139 -106.0589 143° Southeast 432 497 31,000  Level Denver Center
08:49AM 41.2050 -105.9497 143° Southeast 438 504 31,000  Level Denver Center
08:50AM 41.1131 -105.8575 143° Southeast 436 502 31,000 -360 Level Denver Center
08:51AM 40.9981 -105.7417 143° Southeast 437 503 30,300 -1,440 Descending Denver Center
08:52AM 40.9025 -105.6442 142° Southeast 435 501 28,200 -2,040 Descending Denver Center
08:53AM 40.8161 -105.5567 143° Southeast 400 460 26,200 -2,040 Descending Denver Center
08:54AM 40.7317 -105.4744 144° Southeast 381 438 24,200 -2,040 Descending Denver Center
08:55AM 40.6522 -105.3964 143° Southeast 364 419 22,200 -2,040 Descending Denver Center
08:56AM 40.5769 -105.3214 143° Southeast 344 396 20,200 -2,040 Descending Denver Center
08:57AM 40.4994 -105.2442 143° Southeast 349 402 18,200 -2,160 Descending Denver Center
08:58AM 40.4503 -105.0936 113° Southeast 390 449 15,900 -1,620 Descending Denver Center
08:59AM 40.4175 -104.9722 109° East 356 410 15,000 -900 Descending Denver Center
09:00AM 40.3647 -104.9039 135° Southeast 283 326 14,100 -1,200 Descending Denver Center
09:01AM 40.3008 -104.8558 150° Southeast 265 305 12,600 -1,380 Descending Denver Center
09:02AM 40.2378 -104.8108 151° Southeast 259 298 11,300 -1,380 Descending Denver Center
09:03AM 40.1747 -104.7678 152° Southeast 255 293 9,900 -1,320 Descending Denver Center
09:04AM 40.1128 -104.7253 152° Southeast 253 291 8,700 -900 Descending Denver Center
09:05AM 40.0503 -104.6894 156° South 228 262 8,100 -720 Descending Denver Center
09:06AM 39.9928 -104.6847 176° South 208 239 7,300 -900 Descending Denver Center
09:07AM 39.9439 -104.6861 181° South 174 200 6,300 -900 Descending Denver Center
09:08AM 39.9003 -104.6867 181° South 158 182 5,500 -840 Descending Denver Center